sensor_id;sensor_type;location;lat;lon;timestamp;pressure;altitude;pressure_sealevel;temperature;humidity
84714;BME280;74938;42.658;23.248;2024-02-26T00:01:23;93564.34;;;7.50;78.27
84714;BME280;74938;42.658;23.248;2024-02-26T00:03:48;93574.19;;;7.40;78.81
84714;BME280;74938;42.658;23.248;2024-02-26T00:06:14;93564.34;;;7.50;78.54
84714;BME280;74938;42.658;23.248;2024-02-26T00:08:39;93565.22;;;7.70;77.40
84714;BME280;74938;42.658;23.248;2024-02-26T00:11:04;93557.19;;;7.45;78.54
84714;BME280;74938;42.658;23.248;2024-02-26T00:13:30;93567.56;;;7.65;78.30
84714;BME280;74938;42.658;23.248;2024-02-26T00:15:55;93558.69;;;7.67;78.26
84714;BME280;74938;42.658;23.248;2024-02-26T00:18:21;93562.09;;;7.75;77.89
84714;BME280;74938;42.658;23.248;2024-02-26T00:20:46;93563.41;;;7.57;79.03
84714;BME280;74938;42.658;23.248;2024-02-26T00:23:15;93564.81;;;7.66;78.20
84714;BME280;74938;42.658;23.248;2024-02-26T00:25:40;93559.72;;;7.80;78.58
84714;BME280;74938;42.658;23.248;2024-02-26T00:28:08;93550.63;;;7.84;78.04
84714;BME280;74938;42.658;23.248;2024-02-26T00:30:33;93550.66;;;7.90;77.60
84714;BME280;74938;42.658;23.248;2024-02-26T00:32:59;93555.34;;;7.80;78.47
84714;BME280;74938;42.658;23.248;2024-02-26T00:35:24;93551.41;;;7.78;79.33
84714;BME280;74938;42.658;23.248;2024-02-26T00:37:49;93553.19;;;7.77;78.92
84714;BME280;74938;42.658;23.248;2024-02-26T00:40:15;93548.13;;;7.43;80.14
84714;BME280;74938;42.658;23.248;2024-02-26T00:42:40;93538.22;;;7.46;79.89
84714;BME280;74938;42.658;23.248;2024-02-26T00:45:11;93542.88;;;7.23;80.91
84714;BME280;74938;42.658;23.248;2024-02-26T00:47:37;93529.41;;;7.21;81.53
84714;BME280;74938;42.658;23.248;2024-02-26T00:50:02;93533.34;;;7.64;79.70
84714;BME280;74938;42.658;23.248;2024-02-26T00:52:27;93531.84;;;7.36;80.89
84714;BME280;74938;42.658;23.248;2024-02-26T00:54:53;93529.75;;;7.52;79.75
84714;BME280;74938;42.658;23.248;2024-02-26T00:57:18;93527.03;;;7.60;79.51
84714;BME280;74938;42.658;23.248;2024-02-26T00:59:44;93522.03;;;7.52;79.74
84714;BME280;74938;42.658;23.248;2024-02-26T01:02:09;93522.41;;;7.43;79.84
84714;BME280;74938;42.658;23.248;2024-02-26T01:04:34;93525.84;;;7.69;79.66
84714;BME280;74938;42.658;23.248;2024-02-26T01:07:00;93519.81;;;8.03;78.65
84714;BME280;74938;42.658;23.248;2024-02-26T01:09:25;93521.78;;;7.95;78.56
84714;BME280;74938;42.658;23.248;2024-02-26T01:11:50;93519.22;;;8.08;77.50
84714;BME280;74938;42.658;23.248;2024-02-26T01:14:16;93505.75;;;8.19;77.41
84714;BME280;74938;42.658;23.248;2024-02-26T01:16:41;93516.91;;;8.33;77.82
84714;BME280;74938;42.658;23.248;2024-02-26T01:19:06;93512.16;;;8.36;76.72
84714;BME280;74938;42.658;23.248;2024-02-26T01:21:32;93515.09;;;8.27;78.02
84714;BME280;74938;42.658;23.248;2024-02-26T01:23:57;93516.66;;;8.15;77.79
84714;BME280;74938;42.658;23.248;2024-02-26T01:26:23;93519.41;;;7.93;78.05
84714;BME280;74938;42.658;23.248;2024-02-26T01:28:48;93514.19;;;7.80;79.31
84714;BME280;74938;42.658;23.248;2024-02-26T01:31:13;93514.38;;;7.65;79.78
84714;BME280;74938;42.658;23.248;2024-02-26T01:33:39;93509.56;;;7.49;80.46
84714;BME280;74938;42.658;23.248;2024-02-26T01:36:05;93506.34;;;7.34;81.37
84714;BME280;74938;42.658;23.248;2024-02-26T01:38:30;93513.63;;;7.24;81.82
84714;BME280;74938;42.658;23.248;2024-02-26T01:40:56;93508.25;;;7.19;81.83
84714;BME280;74938;42.658;23.248;2024-02-26T01:43:21;93514.97;;;7.67;80.87
84714;BME280;74938;42.658;23.248;2024-02-26T01:45:47;93507.53;;;8.06;78.94
84714;BME280;74938;42.658;23.248;2024-02-26T01:48:12;93499.25;;;8.10;78.37
84714;BME280;74938;42.658;23.248;2024-02-26T01:50:38;93503.19;;;8.19;77.80
84714;BME280;74938;42.658;23.248;2024-02-26T01:53:03;93508.72;;;8.03;77.69
84714;BME280;74938;42.658;23.248;2024-02-26T01:55:32;93508.91;;;7.95;78.07
84714;BME280;74938;42.658;23.248;2024-02-26T01:57:58;93501.38;;;7.87;79.18
84714;BME280;74938;42.658;23.248;2024-02-26T02:00:24;93506.72;;;7.79;79.06
84714;BME280;74938;42.658;23.248;2024-02-26T02:02:50;93502.13;;;7.81;79.00
84714;BME280;74938;42.658;23.248;2024-02-26T02:05:16;93503.41;;;8.11;78.23
84714;BME280;74938;42.658;23.248;2024-02-26T02:07:45;93499.03;;;8.05;77.23
84714;BME280;74938;42.658;23.248;2024-02-26T02:10:11;93495.66;;;8.18;78.37
84714;BME280;74938;42.658;23.248;2024-02-26T02:12:37;93499.03;;;8.18;77.58
84714;BME280;74938;42.658;23.248;2024-02-26T02:15:05;93496.03;;;8.01;78.20
84714;BME280;74938;42.658;23.248;2024-02-26T02:17:31;93488.88;;;7.71;79.24
84714;BME280;74938;42.658;23.248;2024-02-26T02:19:57;93501.13;;;7.68;79.71
84714;BME280;74938;42.658;23.248;2024-02-26T02:22:22;93498.03;;;7.93;79.17
84714;BME280;74938;42.658;23.248;2024-02-26T02:24:49;93495.22;;;7.88;78.76
84714;BME280;74938;42.658;23.248;2024-02-26T02:27:14;93493.69;;;8.13;77.87
84714;BME280;74938;42.658;23.248;2024-02-26T02:29:40;93494.47;;;8.20;77.28
84714;BME280;74938;42.658;23.248;2024-02-26T02:32:06;93493.50;;;8.08;78.18
84714;BME280;74938;42.658;23.248;2024-02-26T02:34:32;93477.47;;;8.26;76.87
84714;BME280;74938;42.658;23.248;2024-02-26T02:36:59;93486.38;;;8.30;76.21
84714;BME280;74938;42.658;23.248;2024-02-26T02:39:24;93491.94;;;8.33;76.98
84714;BME280;74938;42.658;23.248;2024-02-26T02:41:50;93496.91;;;8.42;75.90
84714;BME280;74938;42.658;23.248;2024-02-26T02:44:15;93485.00;;;8.27;76.48
84714;BME280;74938;42.658;23.248;2024-02-26T02:46:41;93492.13;;;8.25;77.13
84714;BME280;74938;42.658;23.248;2024-02-26T02:49:10;93502.19;;;8.00;77.57
84714;BME280;74938;42.658;23.248;2024-02-26T02:51:39;93497.47;;;8.11;78.69
84714;BME280;74938;42.658;23.248;2024-02-26T02:54:04;93512.66;;;7.92;78.39
84714;BME280;74938;42.658;23.248;2024-02-26T02:56:30;93514.13;;;7.54;80.16
84714;BME280;74938;42.658;23.248;2024-02-26T02:58:55;93515.59;;;7.28;81.54
84714;BME280;74938;42.658;23.248;2024-02-26T03:01:21;93517.19;;;7.29;81.53
84714;BME280;74938;42.658;23.248;2024-02-26T03:03:46;93504.25;;;7.57;79.91
84714;BME280;74938;42.658;23.248;2024-02-26T03:06:11;93510.53;;;7.42;81.41
84714;BME280;74938;42.658;23.248;2024-02-26T03:08:37;93512.16;;;7.62;80.30
84714;BME280;74938;42.658;23.248;2024-02-26T03:11:04;93515.97;;;7.73;79.73
84714;BME280;74938;42.658;23.248;2024-02-26T03:13:30;93511.13;;;8.11;78.50
84714;BME280;74938;42.658;23.248;2024-02-26T03:15:55;93508.34;;;8.13;77.47
84714;BME280;74938;42.658;23.248;2024-02-26T03:18:20;93508.91;;;8.15;78.27
84714;BME280;74938;42.658;23.248;2024-02-26T03:20:46;93502.41;;;8.12;78.90
84714;BME280;74938;42.658;23.248;2024-02-26T03:23:12;93494.47;;;8.07;79.14
84714;BME280;74938;42.658;23.248;2024-02-26T03:25:44;93494.06;;;7.97;79.23
84714;BME280;74938;42.658;23.248;2024-02-26T03:28:11;93496.25;;;7.93;79.79
84714;BME280;74938;42.658;23.248;2024-02-26T03:30:37;93497.22;;;7.99;78.99
84714;BME280;74938;42.658;23.248;2024-02-26T03:33:03;93489.72;;;8.04;78.52
84714;BME280;74938;42.658;23.248;2024-02-26T03:35:28;93479.63;;;8.09;78.10
84714;BME280;74938;42.658;23.248;2024-02-26T03:37:54;93481.00;;;8.18;76.95
84714;BME280;74938;42.658;23.248;2024-02-26T03:40:19;93478.66;;;8.23;76.62
84714;BME280;74938;42.658;23.248;2024-02-26T03:42:45;93484.41;;;8.25;76.79
84714;BME280;74938;42.658;23.248;2024-02-26T03:45:10;93487.69;;;7.80;78.67
84714;BME280;74938;42.658;23.248;2024-02-26T03:47:38;93483.19;;;7.95;77.94
84714;BME280;74938;42.658;23.248;2024-02-26T03:50:05;93486.69;;;7.81;78.19
84714;BME280;74938;42.658;23.248;2024-02-26T03:52:32;93474.25;;;7.84;77.90
84714;BME280;74938;42.658;23.248;2024-02-26T03:54:57;93479.91;;;7.53;79.96
84714;BME280;74938;42.658;23.248;2024-02-26T03:57:23;93481.16;;;7.16;80.45
84714;BME280;74938;42.658;23.248;2024-02-26T03:59:48;93482.81;;;6.96;82.05
84714;BME280;74938;42.658;23.248;2024-02-26T04:02:13;93476.81;;;7.17;81.41
84714;BME280;74938;42.658;23.248;2024-02-26T04:04:39;93474.81;;;7.12;81.09
84714;BME280;74938;42.658;23.248;2024-02-26T04:07:04;93473.94;;;7.40;80.05
84714;BME280;74938;42.658;23.248;2024-02-26T04:09:33;93473.75;;;7.48;79.69
84714;BME280;74938;42.658;23.248;2024-02-26T04:11:58;93472.34;;;7.45;79.73
84714;BME280;74938;42.658;23.248;2024-02-26T04:14:24;93475.97;;;7.64;78.97
84714;BME280;74938;42.658;23.248;2024-02-26T04:16:49;93468.53;;;7.89;77.78
84714;BME280;74938;42.658;23.248;2024-02-26T04:19:17;93458.03;;;7.97;77.53
84714;BME280;74938;42.658;23.248;2024-02-26T04:21:43;93454.25;;;7.86;77.22
84714;BME280;74938;42.658;23.248;2024-02-26T04:24:08;93458.16;;;7.56;78.77
84714;BME280;74938;42.658;23.248;2024-02-26T04:26:34;93458.25;;;7.95;77.47
84714;BME280;74938;42.658;23.248;2024-02-26T04:29:00;93463.91;;;7.58;78.84
84714;BME280;74938;42.658;23.248;2024-02-26T04:31:25;93456.34;;;7.50;79.50
84714;BME280;74938;42.658;23.248;2024-02-26T04:33:51;93459.56;;;7.65;78.85
84714;BME280;74938;42.658;23.248;2024-02-26T04:36:17;93465.88;;;7.62;78.90
84714;BME280;74938;42.658;23.248;2024-02-26T04:38:43;93461.19;;;7.99;78.57
84714;BME280;74938;42.658;23.248;2024-02-26T04:41:09;93459.03;;;7.96;77.50
84714;BME280;74938;42.658;23.248;2024-02-26T04:43:34;93466.31;;;7.73;79.48
84714;BME280;74938;42.658;23.248;2024-02-26T04:45:59;93464.72;;;7.72;79.42
84714;BME280;74938;42.658;23.248;2024-02-26T04:48:25;93462.78;;;7.87;78.57
84714;BME280;74938;42.658;23.248;2024-02-26T04:50:50;93465.09;;;7.62;78.28
84714;BME280;74938;42.658;23.248;2024-02-26T04:53:15;93462.13;;;7.58;79.67
84714;BME280;74938;42.658;23.248;2024-02-26T04:55:41;93470.63;;;7.65;79.04
84714;BME280;74938;42.658;23.248;2024-02-26T04:58:06;93484.88;;;7.55;79.33
84714;BME280;74938;42.658;23.248;2024-02-26T05:00:31;93483.69;;;7.57;78.88
84714;BME280;74938;42.658;23.248;2024-02-26T05:02:57;93482.97;;;7.29;80.19
84714;BME280;74938;42.658;23.248;2024-02-26T05:05:22;93483.59;;;7.31;80.48
84714;BME280;74938;42.658;23.248;2024-02-26T05:07:47;93491.75;;;7.41;80.80
84714;BME280;74938;42.658;23.248;2024-02-26T05:10:13;93494.34;;;7.54;78.71
84714;BME280;74938;42.658;23.248;2024-02-26T05:12:38;93495.97;;;7.68;79.64
84714;BME280;74938;42.658;23.248;2024-02-26T05:15:04;93493.25;;;7.77;78.85
84714;BME280;74938;42.658;23.248;2024-02-26T05:17:30;93500.31;;;7.68;78.73
84714;BME280;74938;42.658;23.248;2024-02-26T05:19:55;93510.09;;;7.92;78.30
84714;BME280;74938;42.658;23.248;2024-02-26T05:22:23;93506.56;;;8.07;77.01
84714;BME280;74938;42.658;23.248;2024-02-26T05:24:49;93517.00;;;7.98;77.12
84714;BME280;74938;42.658;23.248;2024-02-26T05:27:14;93520.31;;;7.66;78.70
84714;BME280;74938;42.658;23.248;2024-02-26T05:29:39;93518.44;;;7.40;80.49
84714;BME280;74938;42.658;23.248;2024-02-26T05:32:05;93515.63;;;7.89;78.31
84714;BME280;74938;42.658;23.248;2024-02-26T05:34:31;93522.78;;;8.07;77.98
84714;BME280;74938;42.658;23.248;2024-02-26T05:36:57;93520.13;;;7.81;77.83
84714;BME280;74938;42.658;23.248;2024-02-26T05:39:22;93524.41;;;7.54;79.54
84714;BME280;74938;42.658;23.248;2024-02-26T05:41:48;93528.66;;;7.75;79.17
84714;BME280;74938;42.658;23.248;2024-02-26T05:44:14;93526.47;;;7.72;78.82
84714;BME280;74938;42.658;23.248;2024-02-26T05:46:41;93523.91;;;7.30;80.24
84714;BME280;74938;42.658;23.248;2024-02-26T05:49:07;93537.28;;;7.54;80.04
84714;BME280;74938;42.658;23.248;2024-02-26T05:51:32;93534.38;;;7.29;81.46
84714;BME280;74938;42.658;23.248;2024-02-26T05:53:58;93533.16;;;7.66;80.42
84714;BME280;74938;42.658;23.248;2024-02-26T05:56:23;93532.34;;;7.59;79.99
84714;BME280;74938;42.658;23.248;2024-02-26T05:58:49;93534.66;;;7.47;80.48
84714;BME280;74938;42.658;23.248;2024-02-26T06:01:17;93535.06;;;7.44;81.01
84714;BME280;74938;42.658;23.248;2024-02-26T06:03:43;93539.41;;;7.44;81.11
84714;BME280;74938;42.658;23.248;2024-02-26T06:06:10;93540.25;;;7.57;80.13
84714;BME280;74938;42.658;23.248;2024-02-26T06:08:36;93540.47;;;7.62;80.43
84714;BME280;74938;42.658;23.248;2024-02-26T06:11:05;93541.41;;;7.48;80.84
84714;BME280;74938;42.658;23.248;2024-02-26T06:13:31;93538.03;;;7.41;81.17
84714;BME280;74938;42.658;23.248;2024-02-26T06:15:57;93538.41;;;7.38;81.91
84714;BME280;74938;42.658;23.248;2024-02-26T06:18:22;93541.13;;;7.30;81.71
84714;BME280;74938;42.658;23.248;2024-02-26T06:20:48;93542.88;;;7.29;82.20
84714;BME280;74938;42.658;23.248;2024-02-26T06:23:13;93539.16;;;7.32;82.11
84714;BME280;74938;42.658;23.248;2024-02-26T06:25:38;93548.00;;;7.23;82.76
84714;BME280;74938;42.658;23.248;2024-02-26T06:28:04;93537.34;;;7.26;82.28
84714;BME280;74938;42.658;23.248;2024-02-26T06:30:30;93541.53;;;7.33;82.16
84714;BME280;74938;42.658;23.248;2024-02-26T06:32:55;93544.16;;;7.40;82.00
84714;BME280;74938;42.658;23.248;2024-02-26T06:35:20;93540.97;;;7.45;81.86
84714;BME280;74938;42.658;23.248;2024-02-26T06:37:46;93539.19;;;7.45;81.97
84714;BME280;74938;42.658;23.248;2024-02-26T06:40:11;93539.06;;;7.53;81.72
84714;BME280;74938;42.658;23.248;2024-02-26T06:42:37;93540.63;;;7.54;81.48
84714;BME280;74938;42.658;23.248;2024-02-26T06:45:03;93547.19;;;7.57;81.66
84714;BME280;74938;42.658;23.248;2024-02-26T06:47:29;93543.63;;;7.58;82.10
84714;BME280;74938;42.658;23.248;2024-02-26T06:49:54;93545.09;;;7.87;81.03
84714;BME280;74938;42.658;23.248;2024-02-26T06:52:23;93546.25;;;7.71;81.28
84714;BME280;74938;42.658;23.248;2024-02-26T06:54:50;93547.78;;;7.65;81.72
84714;BME280;74938;42.658;23.248;2024-02-26T06:57:16;93550.97;;;7.67;81.07
84714;BME280;74938;42.658;23.248;2024-02-26T06:59:41;93553.06;;;8.05;79.59
84714;BME280;74938;42.658;23.248;2024-02-26T07:02:11;93550.28;;;7.93;80.10
84714;BME280;74938;42.658;23.248;2024-02-26T07:04:36;93541.72;;;7.86;80.75
84714;BME280;74938;42.658;23.248;2024-02-26T07:07:02;93552.22;;;7.85;81.13
84714;BME280;74938;42.658;23.248;2024-02-26T07:09:27;93545.28;;;7.79;81.11
84714;BME280;74938;42.658;23.248;2024-02-26T07:11:53;93562.50;;;7.85;80.94
84714;BME280;74938;42.658;23.248;2024-02-26T07:14:18;93557.34;;;7.78;81.29
84714;BME280;74938;42.658;23.248;2024-02-26T07:16:43;93562.69;;;7.83;80.98
84714;BME280;74938;42.658;23.248;2024-02-26T07:19:09;93572.44;;;7.94;81.30
84714;BME280;74938;42.658;23.248;2024-02-26T07:21:34;93575.00;;;7.88;80.38
84714;BME280;74938;42.658;23.248;2024-02-26T07:23:59;93576.38;;;7.97;80.09
84714;BME280;74938;42.658;23.248;2024-02-26T07:26:25;93566.09;;;7.97;79.89
84714;BME280;74938;42.658;23.248;2024-02-26T07:28:51;93563.25;;;8.53;78.63
84714;BME280;74938;42.658;23.248;2024-02-26T07:31:19;93561.69;;;8.45;78.43
84714;BME280;74938;42.658;23.248;2024-02-26T07:33:45;93568.78;;;8.30;79.48
84714;BME280;74938;42.658;23.248;2024-02-26T07:36:11;93565.41;;;8.29;78.55
84714;BME280;74938;42.658;23.248;2024-02-26T07:38:36;93564.06;;;8.66;77.18
84714;BME280;74938;42.658;23.248;2024-02-26T07:41:02;93568.81;;;8.76;76.99
84714;BME280;74938;42.658;23.248;2024-02-26T07:43:28;93566.63;;;8.99;76.42
84714;BME280;74938;42.658;23.248;2024-02-26T07:45:53;93566.63;;;8.93;75.87
84714;BME280;74938;42.658;23.248;2024-02-26T07:48:19;93562.25;;;9.13;75.91
84714;BME280;74938;42.658;23.248;2024-02-26T07:50:44;93560.69;;;8.86;77.11
84714;BME280;74938;42.658;23.248;2024-02-26T07:53:09;93558.31;;;8.71;78.13
84714;BME280;74938;42.658;23.248;2024-02-26T07:55:35;93563.03;;;9.00;76.18
84714;BME280;74938;42.658;23.248;2024-02-26T07:58:00;93559.69;;;8.93;75.64
84714;BME280;74938;42.658;23.248;2024-02-26T08:00:26;93565.47;;;8.82;76.86
84714;BME280;74938;42.658;23.248;2024-02-26T08:02:51;93571.59;;;8.94;76.82
84714;BME280;74938;42.658;23.248;2024-02-26T08:05:17;93557.72;;;8.82;77.07
84714;BME280;74938;42.658;23.248;2024-02-26T08:07:42;93560.31;;;8.82;76.65
84714;BME280;74938;42.658;23.248;2024-02-26T08:10:08;93552.69;;;9.33;74.24
84714;BME280;74938;42.658;23.248;2024-02-26T08:12:33;93554.72;;;9.12;75.86
84714;BME280;74938;42.658;23.248;2024-02-26T08:14:59;93556.44;;;9.44;74.26
84714;BME280;74938;42.658;23.248;2024-02-26T08:17:25;93555.81;;;9.49;73.60
84714;BME280;74938;42.658;23.248;2024-02-26T08:19:52;93548.63;;;9.57;73.32
84714;BME280;74938;42.658;23.248;2024-02-26T08:22:17;93553.06;;;9.88;72.82
84714;BME280;74938;42.658;23.248;2024-02-26T08:24:43;93550.13;;;9.85;71.87
84714;BME280;74938;42.658;23.248;2024-02-26T08:27:09;93553.94;;;9.75;72.12
84714;BME280;74938;42.658;23.248;2024-02-26T08:29:34;93553.75;;;9.70;74.03
84714;BME280;74938;42.658;23.248;2024-02-26T08:31:59;93556.31;;;9.77;73.64
84714;BME280;74938;42.658;23.248;2024-02-26T08:34:25;93554.13;;;9.81;71.48
84714;BME280;74938;42.658;23.248;2024-02-26T08:36:51;93549.47;;;9.96;71.78
84714;BME280;74938;42.658;23.248;2024-02-26T08:39:17;93551.47;;;10.38;70.40
84714;BME280;74938;42.658;23.248;2024-02-26T08:41:43;93556.88;;;10.24;70.94
84714;BME280;74938;42.658;23.248;2024-02-26T08:44:09;93555.91;;;10.25;71.45
84714;BME280;74938;42.658;23.248;2024-02-26T08:46:34;93551.19;;;10.46;71.02
84714;BME280;74938;42.658;23.248;2024-02-26T08:49:00;93554.09;;;10.57;69.33
84714;BME280;74938;42.658;23.248;2024-02-26T08:51:25;93554.75;;;10.52;69.62
84714;BME280;74938;42.658;23.248;2024-02-26T08:53:50;93549.66;;;10.39;71.04
84714;BME280;74938;42.658;23.248;2024-02-26T08:56:16;93554.53;;;10.54;69.47
84714;BME280;74938;42.658;23.248;2024-02-26T08:58:43;93547.84;;;10.39;70.15
84714;BME280;74938;42.658;23.248;2024-02-26T09:01:09;93553.00;;;10.71;70.08
84714;BME280;74938;42.658;23.248;2024-02-26T09:03:34;93551.06;;;10.66;70.32
84714;BME280;74938;42.658;23.248;2024-02-26T09:06:00;93551.38;;;10.52;69.78
84714;BME280;74938;42.658;23.248;2024-02-26T09:08:25;93551.03;;;10.41;71.72
84714;BME280;74938;42.658;23.248;2024-02-26T09:10:51;93543.50;;;10.65;70.69
84714;BME280;74938;42.658;23.248;2024-02-26T09:13:16;93538.44;;;10.52;70.33
84714;BME280;74938;42.658;23.248;2024-02-26T09:15:42;93536.19;;;10.30;70.91
84714;BME280;74938;42.658;23.248;2024-02-26T09:18:07;93551.81;;;10.42;70.85
84714;BME280;74938;42.658;23.248;2024-02-26T09:20:32;93545.34;;;10.58;71.11
84714;BME280;74938;42.658;23.248;2024-02-26T09:22:58;93540.13;;;10.89;69.61
84714;BME280;74938;42.658;23.248;2024-02-26T09:25:23;93535.06;;;10.76;68.84
84714;BME280;74938;42.658;23.248;2024-02-26T09:27:48;93537.91;;;10.93;68.03
84714;BME280;74938;42.658;23.248;2024-02-26T09:30:14;93541.06;;;10.95;68.50
84714;BME280;74938;42.658;23.248;2024-02-26T09:32:40;93539.16;;;11.27;67.53
84714;BME280;74938;42.658;23.248;2024-02-26T09:35:06;93540.28;;;11.56;66.46
84714;BME280;74938;42.658;23.248;2024-02-26T09:37:31;93544.06;;;11.35;66.52
84714;BME280;74938;42.658;23.248;2024-02-26T09:39:57;93537.47;;;11.57;66.52
84714;BME280;74938;42.658;23.248;2024-02-26T09:42:25;93538.84;;;11.60;66.80
84714;BME280;74938;42.658;23.248;2024-02-26T09:44:56;93536.38;;;11.65;64.94
84714;BME280;74938;42.658;23.248;2024-02-26T09:47:25;93530.03;;;11.61;66.57
84714;BME280;74938;42.658;23.248;2024-02-26T09:49:53;93534.63;;;11.95;65.00
84714;BME280;74938;42.658;23.248;2024-02-26T09:52:19;93527.53;;;11.72;65.43
84714;BME280;74938;42.658;23.248;2024-02-26T09:54:48;93521.94;;;11.75;64.72
84714;BME280;74938;42.658;23.248;2024-02-26T09:57:15;93522.03;;;11.99;63.46
84714;BME280;74938;42.658;23.248;2024-02-26T09:59:42;93519.94;;;12.07;63.33
84714;BME280;74938;42.658;23.248;2024-02-26T10:02:12;93521.00;;;12.18;63.88
84714;BME280;74938;42.658;23.248;2024-02-26T10:04:39;93513.00;;;12.19;63.36
84714;BME280;74938;42.658;23.248;2024-02-26T10:07:10;93511.44;;;12.30;63.30
84714;BME280;74938;42.658;23.248;2024-02-26T10:09:35;93504.31;;;12.14;61.13
84714;BME280;74938;42.658;23.248;2024-02-26T10:12:01;93500.63;;;12.33;60.42
84714;BME280;74938;42.658;23.248;2024-02-26T10:14:27;93506.47;;;12.17;60.38
84714;BME280;74938;42.658;23.248;2024-02-26T10:16:52;93505.88;;;12.15;59.66
84714;BME280;74938;42.658;23.248;2024-02-26T10:19:30;93494.09;;;12.31;59.44
84714;BME280;74938;42.658;23.248;2024-02-26T10:21:57;93491.84;;;12.34;58.98
84714;BME280;74938;42.658;23.248;2024-02-26T10:24:23;93488.03;;;12.37;58.83
84714;BME280;74938;42.658;23.248;2024-02-26T10:26:49;93479.25;;;12.49;59.08
84714;BME280;74938;42.658;23.248;2024-02-26T10:29:14;93488.84;;;12.49;58.73
84714;BME280;74938;42.658;23.248;2024-02-26T10:31:43;93475.44;;;12.40;58.81
84714;BME280;74938;42.658;23.248;2024-02-26T10:34:08;93481.31;;;12.59;58.29
84714;BME280;74938;42.658;23.248;2024-02-26T10:36:34;93472.41;;;12.67;58.99
84714;BME280;74938;42.658;23.248;2024-02-26T10:39:11;93477.94;;;12.94;57.77
84714;BME280;74938;42.658;23.248;2024-02-26T10:41:37;93475.22;;;13.12;57.48
84714;BME280;74938;42.658;23.248;2024-02-26T10:44:03;93474.69;;;12.98;57.29
84714;BME280;74938;42.658;23.248;2024-02-26T10:46:29;93471.28;;;12.86;57.30
84714;BME280;74938;42.658;23.248;2024-02-26T10:48:55;93461.94;;;12.97;57.36
84714;BME280;74938;42.658;23.248;2024-02-26T10:51:29;93467.13;;;12.97;57.49
84714;BME280;74938;42.658;23.248;2024-02-26T10:53:56;93471.75;;;13.18;56.83
84714;BME280;74938;42.658;23.248;2024-02-26T10:56:27;93463.06;;;13.24;55.44
84714;BME280;74938;42.658;23.248;2024-02-26T10:58:53;93459.44;;;13.02;56.62
84714;BME280;74938;42.658;23.248;2024-02-26T11:01:20;93459.91;;;12.75;56.97
84714;BME280;74938;42.658;23.248;2024-02-26T11:03:52;93458.09;;;12.87;55.92
84714;BME280;74938;42.658;23.248;2024-02-26T11:06:19;93446.16;;;12.75;57.03
84714;BME280;74938;42.658;23.248;2024-02-26T11:08:48;93445.78;;;12.83;56.29
84714;BME280;74938;42.658;23.248;2024-02-26T11:11:14;93452.00;;;12.94;56.14
84714;BME280;74938;42.658;23.248;2024-02-26T11:13:42;93453.38;;;12.73;55.68
84714;BME280;74938;42.658;23.248;2024-02-26T11:16:11;93459.91;;;12.87;54.82
84714;BME280;74938;42.658;23.248;2024-02-26T11:18:38;93458.34;;;12.98;56.12
84714;BME280;74938;42.658;23.248;2024-02-26T11:21:07;93456.84;;;12.67;55.37
84714;BME280;74938;42.658;23.248;2024-02-26T11:23:33;93451.88;;;13.00;55.30
84714;BME280;74938;42.658;23.248;2024-02-26T11:26:03;93446.03;;;12.70;56.44
84714;BME280;74938;42.658;23.248;2024-02-26T11:28:32;93454.50;;;12.88;55.16
84714;BME280;74938;42.658;23.248;2024-02-26T11:30:59;93449.53;;;12.99;55.91
84714;BME280;74938;42.658;23.248;2024-02-26T11:33:26;93452.88;;;12.99;55.21
84714;BME280;74938;42.658;23.248;2024-02-26T11:35:53;93445.72;;;12.78;55.08
84714;BME280;74938;42.658;23.248;2024-02-26T11:38:24;93437.31;;;12.99;54.85
84714;BME280;74938;42.658;23.248;2024-02-26T11:40:51;93425.63;;;12.97;55.29
84714;BME280;74938;42.658;23.248;2024-02-26T11:43:18;93437.25;;;12.94;55.00
84714;BME280;74938;42.658;23.248;2024-02-26T11:48:17;93438.69;;;13.13;54.71
84714;BME280;74938;42.658;23.248;2024-02-26T11:50:49;93428.41;;;13.18;55.99
84714;BME280;74938;42.658;23.248;2024-02-26T11:55:46;93426.34;;;13.44;54.81
84714;BME280;74938;42.658;23.248;2024-02-26T11:58:12;93425.53;;;13.15;54.75
84714;BME280;74938;42.658;23.248;2024-02-26T12:00:40;93431.56;;;13.20;55.07
84714;BME280;74938;42.658;23.248;2024-02-26T12:03:06;93432.59;;;13.31;53.30
84714;BME280;74938;42.658;23.248;2024-02-26T12:05:34;93442.25;;;13.36;54.51
84714;BME280;74938;42.658;23.248;2024-02-26T12:08:06;93437.34;;;13.51;54.00
84714;BME280;74938;42.658;23.248;2024-02-26T12:10:34;93436.72;;;13.72;53.80
84714;BME280;74938;42.658;23.248;2024-02-26T12:13:16;93439.84;;;14.03;52.09
84714;BME280;74938;42.658;23.248;2024-02-26T12:15:54;93449.25;;;13.75;51.56
84714;BME280;74938;42.658;23.248;2024-02-26T12:18:20;93444.56;;;13.89;52.41
84714;BME280;74938;42.658;23.248;2024-02-26T12:20:46;93451.28;;;13.73;51.17
84714;BME280;74938;42.658;23.248;2024-02-26T12:23:16;93452.38;;;13.61;51.86
84714;BME280;74938;42.658;23.248;2024-02-26T12:25:44;93447.50;;;13.64;51.54
84714;BME280;74938;42.658;23.248;2024-02-26T12:28:10;93444.97;;;13.69;51.99
84714;BME280;74938;42.658;23.248;2024-02-26T12:30:35;93458.53;;;13.71;51.90
84714;BME280;74938;42.658;23.248;2024-02-26T12:33:01;93453.88;;;13.73;51.76
84714;BME280;74938;42.658;23.248;2024-02-26T12:35:28;93458.44;;;13.66;51.43
84714;BME280;74938;42.658;23.248;2024-02-26T12:37:56;93448.53;;;13.63;51.87
84714;BME280;74938;42.658;23.248;2024-02-26T12:40:22;93458.34;;;13.61;51.20
84714;BME280;74938;42.658;23.248;2024-02-26T12:42:47;93453.50;;;13.53;51.24
84714;BME280;74938;42.658;23.248;2024-02-26T12:45:13;93451.91;;;13.64;50.98
84714;BME280;74938;42.658;23.248;2024-02-26T12:50:08;93450.66;;;13.66;50.95
84714;BME280;74938;42.658;23.248;2024-02-26T12:52:43;93451.13;;;13.63;51.35
84714;BME280;74938;42.658;23.248;2024-02-26T12:55:11;93446.09;;;14.02;50.03
84714;BME280;74938;42.658;23.248;2024-02-26T12:57:39;93456.09;;;13.53;50.25
84714;BME280;74938;42.658;23.248;2024-02-26T13:00:06;93448.19;;;13.59;50.83